createdAt,value
2019-02-04T00:00:32.770Z,21.03
2019-02-04T00:01:37.541Z,16.73
2019-02-04T00:02:41.245Z,18.00
2019-02-04T00:03:44.879Z,15.80
2019-02-04T00:04:48.924Z,20.47
2019-02-04T00:05:52.931Z,18.20
2019-02-04T00:06:56.710Z,18.53
2019-02-04T00:08:00.513Z,17.13
2019-02-04T00:09:06.508Z,19.67
2019-02-04T00:10:12.295Z,9.00
2019-02-04T00:11:16.056Z,19.60
2019-02-04T00:12:19.787Z,18.23
2019-02-04T00:13:23.516Z,21.70
2019-02-04T00:14:27.146Z,14.90
2019-02-04T00:15:30.801Z,16.63
2019-02-04T00:16:40.865Z,17.10
2019-02-04T00:17:39.950Z,20.03
2019-02-04T00:18:43.683Z,15.50
2019-02-04T00:19:47.315Z,23.80
2019-02-04T00:20:51.015Z,13.27
2019-02-04T00:21:55.174Z,16.90
2019-02-04T00:22:58.967Z,13.83
2019-02-04T00:24:02.619Z,11.43
2019-02-04T00:25:07.378Z,15.53
2019-02-04T00:26:11.189Z,18.10
2019-02-04T00:27:14.869Z,20.67
2019-02-04T00:28:18.600Z,12.80
2019-02-04T00:29:22.332Z,15.20
2019-02-04T00:30:27.278Z,15.80
2019-02-04T00:31:31.077Z,16.50
2019-02-04T00:32:35.103Z,22.63
2019-02-04T00:33:38.869Z,13.33
2019-02-04T00:34:42.666Z,15.17
2019-02-04T00:35:46.376Z,13.33
2019-02-04T00:36:50.566Z,16.50
2019-02-04T00:37:54.670Z,15.80
2019-02-04T00:38:58.347Z,13.97
2019-02-04T00:40:02.002Z,14.87
2019-02-04T00:41:05.848Z,14.77
2019-02-04T00:42:09.496Z,20.60
2019-02-04T00:43:13.128Z,12.53
2019-02-04T00:44:16.797Z,15.43
2019-02-04T00:45:20.518Z,18.07
2019-02-04T00:46:24.214Z,19.77
2019-02-04T00:47:27.905Z,14.77
2019-02-04T00:48:31.540Z,18.00
2019-02-04T00:49:35.261Z,17.80
2019-02-04T00:50:39.260Z,19.33
2019-02-04T00:51:43.193Z,12.50
2019-02-04T00:52:46.989Z,19.47
2019-02-04T00:53:50.691Z,14.70
2019-02-04T00:54:54.475Z,15.53
2019-02-04T00:55:58.582Z,11.50
2019-02-04T00:57:02.271Z,16.50
2019-02-04T00:58:05.932Z,16.70
2019-02-04T00:59:09.582Z,15.13
2019-02-04T01:00:28.617Z,14.60
2019-02-04T01:01:32.913Z,16.87
2019-02-04T01:02:36.568Z,18.20
2019-02-04T01:03:40.506Z,16.30
2019-02-04T01:04:44.137Z,16.70
2019-02-04T01:05:48.076Z,16.17
2019-02-04T01:06:51.795Z,13.53
2019-02-04T01:07:55.925Z,14.57
2019-02-04T01:08:59.701Z,12.63
2019-02-04T01:10:05.107Z,14.30
2019-02-04T01:11:08.964Z,13.37
2019-02-04T01:12:12.604Z,18.00
2019-02-04T01:13:16.529Z,12.10
2019-02-04T01:14:20.171Z,14.47
2019-02-04T01:15:24.008Z,12.20
2019-02-04T01:16:27.691Z,14.50
2019-02-04T01:17:31.328Z,14.87
2019-02-04T01:18:35.024Z,18.80
2019-02-04T01:19:39.037Z,16.00
2019-02-04T01:20:42.673Z,14.60
2019-02-04T01:21:46.407Z,13.03
2019-02-04T01:22:50.120Z,12.10
2019-02-04T01:23:53.751Z,23.07
2019-02-04T01:24:57.574Z,16.20
2019-02-04T01:26:01.615Z,15.30
2019-02-04T01:27:05.452Z,14.60
2019-02-04T01:28:09.082Z,17.50
2019-02-04T01:29:12.710Z,24.33
2019-02-04T01:30:19.191Z,20.77
2019-02-04T01:31:22.824Z,14.97
2019-02-04T01:32:26.484Z,16.50
2019-02-04T01:33:30.121Z,14.33
2019-02-04T01:34:33.777Z,15.03
2019-02-04T01:35:37.391Z,23.00
2019-02-04T01:36:41.009Z,17.60
2019-02-04T01:37:44.678Z,15.30
2019-02-04T01:38:48.767Z,15.43
2019-02-04T01:39:52.392Z,12.87
2019-02-04T01:40:56.649Z,14.97
2019-02-04T01:42:00.287Z,15.37
2019-02-04T01:43:04.014Z,9.97
2019-02-04T01:44:07.645Z,14.47
2019-02-04T01:45:11.284Z,10.93
2019-02-04T01:46:14.915Z,15.97
2019-02-04T01:47:18.559Z,15.23
2019-02-04T01:48:22.275Z,10.40
2019-02-04T01:49:25.913Z,19.47
2019-02-04T01:50:29.539Z,10.20
2019-02-04T01:51:33.232Z,18.80
2019-02-04T01:52:36.869Z,16.10
2019-02-04T01:53:40.869Z,11.70
2019-02-04T01:54:44.502Z,12.43
2019-02-04T01:55:48.511Z,12.60
2019-02-04T01:56:52.139Z,13.53
2019-02-04T01:57:56.173Z,16.97
2019-02-04T01:58:59.834Z,10.13
2019-02-04T02:00:05.039Z,13.90
2019-02-04T02:01:08.663Z,14.90
2019-02-04T02:02:12.399Z,19.47
2019-02-04T02:03:16.036Z,11.20
2019-02-04T02:04:19.701Z,17.80
2019-02-04T02:05:23.424Z,16.33
2019-02-04T02:06:27.045Z,18.50
2019-02-04T02:07:30.671Z,7.50
2019-02-04T02:08:34.301Z,9.77
2019-02-04T02:09:37.964Z,15.47
2019-02-04T02:10:41.984Z,16.30
2019-02-04T02:11:45.611Z,13.00
2019-02-04T02:12:49.543Z,15.50
2019-02-04T02:13:53.254Z,11.23
2019-02-04T02:14:56.908Z,8.17
2019-02-04T02:16:00.538Z,16.07
2019-02-04T02:17:04.674Z,15.93
2019-02-04T02:18:08.307Z,11.13
2019-02-04T02:19:12.036Z,16.50
2019-02-04T02:20:21.550Z,13.77
2019-02-04T02:21:25.107Z,14.33
2019-02-04T02:22:28.754Z,13.37
2019-02-04T02:23:32.383Z,11.23
2019-02-04T02:24:36.022Z,15.87
2019-02-04T02:25:39.688Z,11.87
2019-02-04T02:26:43.602Z,15.67
2019-02-04T02:27:48.510Z,11.40
2019-02-04T02:28:52.148Z,15.77
2019-02-04T02:29:56.159Z,16.43
2019-02-04T02:30:59.822Z,17.87
2019-02-04T02:32:03.454Z,10.03
2019-02-04T02:33:07.196Z,16.80
2019-02-04T02:34:10.875Z,15.07
2019-02-04T02:35:14.512Z,13.83
2019-02-04T02:36:18.174Z,16.63
2019-02-04T02:37:21.802Z,24.80
2019-02-04T02:38:25.432Z,17.70
2019-02-04T02:39:29.058Z,17.07
2019-02-04T02:40:34.061Z,23.13
2019-02-04T02:41:38.004Z,14.70
2019-02-04T02:42:42.012Z,19.77
2019-02-04T02:43:45.646Z,20.77
2019-02-04T02:44:49.286Z,14.20
2019-02-04T02:45:52.920Z,16.80
2019-02-04T02:46:56.622Z,20.67
2019-02-04T02:48:00.308Z,24.57
2019-02-04T02:49:03.891Z,15.33
2019-02-04T02:50:10.190Z,15.37
2019-02-04T02:51:13.749Z,17.90
2019-02-04T02:52:17.416Z,21.53
2019-02-04T02:53:21.053Z,21.10
2019-02-04T02:54:24.832Z,17.40
2019-02-04T02:55:28.466Z,17.93
2019-02-04T02:56:32.475Z,18.13
2019-02-04T02:57:36.339Z,18.97
2019-02-04T02:58:39.963Z,14.87
2019-02-04T02:59:43.589Z,25.10
2019-02-04T03:00:47.181Z,17.60
2019-02-04T03:01:51.617Z,19.40
2019-02-04T03:02:55.481Z,13.37
2019-02-04T03:03:59.106Z,18.20
2019-02-04T03:05:02.737Z,14.33
2019-02-04T03:06:06.372Z,17.20
2019-02-04T03:07:10.023Z,15.90
2019-02-04T03:08:13.699Z,18.30
2019-02-04T03:09:17.333Z,15.50
2019-02-04T03:10:26.770Z,16.97
2019-02-04T03:11:30.395Z,17.40
2019-02-04T03:12:34.308Z,18.30
2019-02-04T03:13:38.351Z,20.20
2019-02-04T03:14:41.980Z,13.07
2019-02-04T03:15:45.616Z,22.93
2019-02-04T03:16:49.258Z,15.97
2019-02-04T03:17:53.195Z,16.13
2019-02-04T03:18:56.859Z,18.80
2019-02-04T03:20:00.489Z,16.33
2019-02-04T03:21:04.123Z,16.10
2019-02-04T03:22:07.796Z,15.70
2019-02-04T03:23:11.430Z,11.70
2019-02-04T03:24:15.087Z,15.13
2019-02-04T03:25:18.794Z,14.73
2019-02-04T03:26:22.422Z,15.33
2019-02-04T03:27:26.230Z,15.50
2019-02-04T03:28:29.869Z,12.37
2019-02-04T03:29:33.541Z,13.40
2019-02-04T03:30:37.214Z,17.40
2019-02-04T03:31:45.679Z,15.43
2019-02-04T03:32:46.585Z,20.53
2019-02-04T03:33:50.498Z,22.43
2019-02-04T03:34:54.182Z,23.10
2019-02-04T03:35:57.812Z,20.20
2019-02-04T03:37:01.447Z,21.93
2019-02-04T03:38:05.081Z,20.50
2019-02-04T03:39:08.820Z,17.07
2019-02-04T03:40:23.963Z,15.83
2019-02-04T03:41:27.974Z,22.50
2019-02-04T03:42:31.701Z,18.27
2019-02-04T03:43:35.336Z,20.70
2019-02-04T03:44:39.247Z,17.43
2019-02-04T03:45:43.398Z,10.73
2019-02-04T03:46:47.035Z,12.83
2019-02-04T03:48:03.735Z,18.53
2019-02-04T03:48:55.965Z,18.63
2019-02-04T03:49:59.599Z,15.47
2019-02-04T03:51:03.276Z,17.07
2019-02-04T03:52:07.363Z,13.97
2019-02-04T03:53:11.001Z,14.93
2019-02-04T03:54:14.564Z,16.07
2019-02-04T03:55:18.802Z,21.30
2019-02-04T03:56:22.523Z,20.63
2019-02-04T03:57:26.160Z,12.13
2019-02-04T03:58:29.783Z,14.93
2019-02-04T03:59:33.406Z,13.07
2019-02-04T04:00:37.501Z,16.73
2019-02-04T04:01:41.646Z,17.57
2019-02-04T04:02:45.375Z,13.97
2019-02-04T04:03:49.004Z,12.27
2019-02-04T04:04:52.840Z,17.30
2019-02-04T04:05:56.488Z,14.40
2019-02-04T04:07:00.177Z,19.77
2019-02-04T04:08:03.813Z,17.97
2019-02-04T04:09:08.141Z,16.90
2019-02-04T04:10:12.278Z,18.00
2019-02-04T04:11:15.923Z,14.87
2019-02-04T04:12:19.572Z,13.20
2019-02-04T04:13:23.588Z,14.17
2019-02-04T04:14:27.224Z,18.23
2019-02-04T04:15:31.094Z,15.10
2019-02-04T04:16:35.102Z,21.47
2019-02-04T04:17:38.767Z,17.77
2019-02-04T04:18:42.401Z,28.33
2019-02-04T04:19:46.040Z,27.30
2019-02-04T04:20:49.579Z,23.03
2019-02-04T04:21:53.215Z,25.93
2019-02-04T04:22:56.881Z,25.57
2019-02-04T04:24:00.512Z,21.33
2019-02-04T04:25:05.546Z,23.37
2019-02-04T04:26:09.281Z,27.47
2019-02-04T04:27:12.911Z,17.30
2019-02-04T04:28:16.580Z,18.37
2019-02-04T04:29:20.213Z,17.70
2019-02-04T04:30:26.221Z,17.63
2019-02-04T04:31:30.233Z,28.03
2019-02-04T04:32:33.876Z,18.43
2019-02-04T04:33:37.672Z,21.30
2019-02-04T04:34:41.421Z,21.80
2019-02-04T04:35:45.336Z,19.40
2019-02-04T04:36:48.975Z,30.17
2019-02-04T04:37:53.168Z,29.63
2019-02-04T04:38:56.837Z,24.13
2019-02-04T04:40:00.474Z,27.37
2019-02-04T04:41:04.225Z,26.70
2019-02-04T04:42:07.851Z,35.20
2019-02-04T04:43:11.479Z,28.73
2019-02-04T04:44:15.146Z,32.13
2019-02-04T04:45:24.115Z,30.33
2019-02-04T04:46:28.027Z,32.23
2019-02-04T04:47:32.046Z,32.70
2019-02-04T04:48:35.551Z,30.03
2019-02-04T04:49:39.229Z,31.20
2019-02-04T04:50:43.186Z,30.80
2019-02-04T04:51:46.818Z,29.07
2019-02-04T04:52:50.460Z,30.83
2019-02-04T04:53:54.103Z,30.20
2019-02-04T04:54:57.782Z,29.73
2019-02-04T04:56:01.421Z,34.83
2019-02-04T04:57:05.088Z,27.77
2019-02-04T04:58:08.736Z,33.77
2019-02-04T04:59:12.373Z,30.27
2019-02-04T05:00:24.852Z,32.60
2019-02-04T05:01:28.483Z,33.57
2019-02-04T05:02:32.154Z,28.83
2019-02-04T05:03:36.084Z,35.20
2019-02-04T05:04:39.707Z,30.17
2019-02-04T05:05:43.337Z,31.97
2019-02-04T05:06:46.908Z,37.70
2019-02-04T05:07:50.580Z,28.53
2019-02-04T05:08:54.220Z,32.43
2019-02-04T05:09:57.838Z,30.53
2019-02-04T05:11:01.410Z,25.60
2019-02-04T05:12:05.051Z,25.97
2019-02-04T05:13:08.736Z,26.33
2019-02-04T05:14:12.733Z,28.20
2019-02-04T05:15:18.668Z,30.60
2019-02-04T05:16:22.306Z,29.23
2019-02-04T05:17:25.935Z,25.20
2019-02-04T05:18:37.873Z,27.40
2019-02-04T05:19:35.196Z,25.33
2019-02-04T05:20:38.753Z,26.50
2019-02-04T05:21:42.391Z,31.17
2019-02-04T05:22:45.954Z,30.20
2019-02-04T05:23:49.633Z,29.27
2019-02-04T05:24:53.268Z,31.53
2019-02-04T05:25:56.908Z,33.03
2019-02-04T05:27:00.549Z,40.90
2019-02-04T05:28:04.186Z,34.70
2019-02-04T05:29:07.857Z,31.37
2019-02-04T05:30:14.193Z,34.10
2019-02-04T05:31:17.842Z,31.70
2019-02-04T05:32:21.481Z,28.17
2019-02-04T05:33:25.182Z,34.90
2019-02-04T05:34:29.550Z,34.40
2019-02-04T05:35:33.197Z,34.27
2019-02-04T05:36:36.845Z,35.20
2019-02-04T05:37:40.455Z,41.27
2019-02-04T05:38:44.463Z,39.27
2019-02-04T05:39:48.137Z,30.07
2019-02-04T05:40:51.770Z,32.97
2019-02-04T05:41:55.404Z,33.10
2019-02-04T05:42:59.051Z,36.50
2019-02-04T05:44:02.664Z,36.50
2019-02-04T05:45:09.017Z,38.00
2019-02-04T05:46:12.640Z,39.63
2019-02-04T05:47:16.379Z,41.70
2019-02-04T05:48:20.022Z,33.77
2019-02-04T05:49:24.026Z,30.87
2019-02-04T05:50:27.676Z,35.80
2019-02-04T05:51:31.307Z,34.27
2019-02-04T05:52:34.946Z,36.37
2019-02-04T05:53:38.902Z,40.30
2019-02-04T05:54:42.533Z,33.90
2019-02-04T05:55:46.207Z,40.53
2019-02-04T05:56:49.841Z,49.20
2019-02-04T05:57:53.478Z,40.83
2019-02-04T05:58:57.118Z,39.93
2019-02-04T06:00:00.798Z,47.87
2019-02-04T06:01:04.730Z,48.03
2019-02-04T06:02:09.484Z,45.00
2019-02-04T06:03:13.295Z,45.10
2019-02-04T06:04:17.307Z,47.57
2019-02-04T06:05:21.245Z,46.87
2019-02-04T06:06:24.912Z,49.50
2019-02-04T06:07:28.733Z,48.83
2019-02-04T06:08:32.365Z,49.07
2019-02-04T06:09:36.000Z,46.87
2019-02-04T06:10:39.640Z,54.83
2019-02-04T06:11:43.285Z,43.50
2019-02-04T06:12:46.925Z,54.57
2019-02-04T06:13:50.588Z,44.43
2019-02-04T06:14:54.298Z,41.97
2019-02-04T06:15:57.933Z,49.93
2019-02-04T06:17:01.612Z,46.40
2019-02-04T06:18:05.423Z,43.37
2019-02-04T06:19:09.338Z,37.20
2019-02-04T06:20:18.452Z,43.60
2019-02-04T06:21:22.081Z,41.83
2019-02-04T06:22:25.750Z,42.63
2019-02-04T06:23:29.382Z,44.53
2019-02-04T06:24:33.016Z,49.17
2019-02-04T06:25:36.664Z,72.77
2019-02-04T06:26:40.331Z,69.73
2019-02-04T06:27:43.991Z,55.73
2019-02-04T06:28:47.629Z,55.60
2019-02-04T06:29:51.260Z,42.43
2019-02-04T06:30:54.901Z,73.57
2019-02-04T06:31:58.953Z,48.57
2019-02-04T06:33:02.634Z,56.63
2019-02-04T06:34:06.647Z,54.20
2019-02-04T06:35:11.272Z,69.03
2019-02-04T06:36:14.884Z,77.83
2019-02-04T06:37:18.522Z,65.90
2019-02-04T06:38:22.192Z,64.33
2019-02-04T06:39:25.823Z,65.27
2019-02-04T06:40:29.464Z,55.73
2019-02-04T06:41:33.092Z,45.93
2019-02-04T06:42:36.727Z,45.27
2019-02-04T06:43:40.402Z,55.70
2019-02-04T06:44:43.966Z,54.67
2019-02-04T06:45:47.651Z,58.07
2019-02-04T06:46:51.326Z,59.87
2019-02-04T06:47:54.949Z,66.33
2019-02-04T06:48:59.011Z,61.63
2019-02-04T06:50:02.645Z,58.83
2019-02-04T06:51:06.284Z,60.47
2019-02-04T06:52:09.921Z,66.97
2019-02-04T06:53:13.558Z,64.43
2019-02-04T06:54:17.320Z,61.00
2019-02-04T06:55:24.035Z,66.30
2019-02-04T06:56:27.746Z,47.00
2019-02-04T06:57:31.389Z,58.53
2019-02-04T06:58:35.087Z,55.27
2019-02-04T06:59:38.755Z,47.40
2019-02-04T07:00:43.381Z,49.93
2019-02-04T07:01:47.197Z,84.73
2019-02-04T07:02:50.905Z,110.87
2019-02-04T07:03:54.923Z,109.93
2019-02-04T07:04:58.812Z,107.03
2019-02-04T07:06:02.538Z,115.70
2019-02-04T07:07:06.703Z,76.27
2019-02-04T07:08:10.346Z,95.63
2019-02-04T07:09:14.025Z,75.60
2019-02-04T07:10:23.094Z,59.93
2019-02-04T07:11:26.736Z,70.40
2019-02-04T07:12:30.387Z,58.77
2019-02-04T07:13:34.022Z,63.87
2019-02-04T07:14:37.729Z,64.40
2019-02-04T07:15:41.405Z,56.97
2019-02-04T07:16:45.064Z,58.47
2019-02-04T07:17:49.062Z,72.13
2019-02-04T07:18:52.872Z,93.90
2019-02-04T07:19:56.893Z,83.23
2019-02-04T07:21:00.566Z,60.93
2019-02-04T07:22:04.216Z,67.77
2019-02-04T07:23:07.860Z,58.17
2019-02-04T07:24:11.497Z,48.37
2019-02-04T07:25:16.438Z,45.87
2019-02-04T07:26:20.100Z,40.17
2019-02-04T07:27:23.793Z,47.50
2019-02-04T07:28:27.833Z,51.43
2019-02-04T07:29:31.459Z,60.83
2019-02-04T07:30:35.097Z,60.50
2019-02-04T07:31:38.764Z,65.83
2019-02-04T07:32:42.403Z,64.50
2019-02-04T07:33:46.417Z,67.67
2019-02-04T07:34:50.056Z,58.27
2019-02-04T07:35:53.684Z,60.17
2019-02-04T07:36:57.360Z,65.67
2019-02-04T07:38:01.084Z,61.53
2019-02-04T07:39:07.494Z,52.30
2019-02-04T07:40:16.470Z,53.17
2019-02-04T07:41:20.114Z,46.17
2019-02-04T07:42:23.739Z,50.93
2019-02-04T07:43:27.384Z,42.30
2019-02-04T07:44:31.015Z,49.90
2019-02-04T07:45:34.752Z,41.30
2019-02-04T07:46:38.434Z,36.37
2019-02-04T07:47:42.370Z,51.97
2019-02-04T07:48:46.052Z,41.70
2019-02-04T07:49:50.178Z,41.67
2019-02-04T07:50:53.850Z,46.93
2019-02-04T07:51:57.596Z,43.73
2019-02-04T07:53:01.300Z,40.40
2019-02-04T07:54:05.047Z,47.27
2019-02-04T07:55:10.486Z,50.20
2019-02-04T07:56:14.184Z,45.07
2019-02-04T07:57:17.826Z,47.30
2019-02-04T07:58:21.638Z,43.43
2019-02-04T07:59:25.278Z,38.57
2019-02-04T08:00:31.228Z,42.70
2019-02-04T08:01:35.153Z,59.90
2019-02-04T08:02:38.797Z,62.23
2019-02-04T08:03:42.434Z,50.60
2019-02-04T08:04:46.261Z,55.57
2019-02-04T08:05:50.265Z,56.90
2019-02-04T08:06:53.936Z,47.07
2019-02-04T08:07:57.778Z,48.43
2019-02-04T08:09:01.345Z,43.37
2019-02-04T08:10:07.780Z,43.43
2019-02-04T08:11:11.344Z,44.30
2019-02-04T08:12:15.014Z,39.27
2019-02-04T08:13:18.660Z,66.97
2019-02-04T08:14:22.297Z,63.43
2019-02-04T08:15:28.731Z,45.47
2019-02-04T08:16:32.368Z,49.03
2019-02-04T08:17:36.042Z,49.17
2019-02-04T08:18:39.756Z,41.27
2019-02-04T08:19:47.056Z,62.67
2019-02-04T08:20:48.769Z,45.47
2019-02-04T08:21:52.414Z,38.47
2019-02-04T08:22:56.082Z,41.60
2019-02-04T08:23:59.727Z,69.90
2019-02-04T08:25:03.628Z,54.27
2019-02-04T08:26:07.283Z,54.63
2019-02-04T08:27:11.008Z,77.83
2019-02-04T08:28:14.682Z,56.70
2019-02-04T08:29:18.327Z,65.07
2019-02-04T08:30:24.679Z,51.70
2019-02-04T08:31:28.702Z,51.43
2019-02-04T08:32:32.338Z,45.90
2019-02-04T08:33:36.011Z,45.10
2019-02-04T08:34:39.659Z,46.47
2019-02-04T08:35:43.628Z,52.80
2019-02-04T08:36:47.256Z,48.30
2019-02-04T08:37:50.924Z,40.57
2019-02-04T08:38:54.598Z,38.77
2019-02-04T08:39:58.240Z,31.87
2019-02-04T08:41:01.891Z,37.63
2019-02-04T08:42:05.660Z,41.97
2019-02-04T08:43:09.352Z,30.83
2019-02-04T08:44:13.027Z,36.50
2019-02-04T08:45:16.677Z,33.30
2019-02-04T08:46:20.386Z,37.70
2019-02-04T08:47:24.450Z,44.17
2019-02-04T08:48:28.185Z,47.87
2019-02-04T08:49:32.147Z,38.57
2019-02-04T08:50:35.798Z,48.73
2019-02-04T08:51:39.471Z,60.80
2019-02-04T08:52:43.126Z,52.60
2019-02-04T08:53:46.835Z,45.50
2019-02-04T08:54:50.510Z,48.37
2019-02-04T08:55:54.148Z,47.77
2019-02-04T08:56:57.818Z,37.17
2019-02-04T08:58:01.456Z,33.80
2019-02-04T08:59:05.091Z,41.20
2019-02-04T09:00:14.889Z,49.10
2019-02-04T09:01:18.527Z,49.03
2019-02-04T09:02:23.792Z,42.83
2019-02-04T09:03:27.428Z,45.97
2019-02-04T09:04:33.212Z,48.57
2019-02-04T09:05:37.232Z,39.93
2019-02-04T09:06:41.268Z,39.53
2019-02-04T09:07:45.215Z,38.73
2019-02-04T09:08:48.931Z,38.47
2019-02-04T09:09:52.567Z,36.17
2019-02-04T09:10:56.285Z,30.67
2019-02-04T09:11:59.930Z,39.17
2019-02-04T09:13:03.712Z,42.23
2019-02-04T09:14:07.365Z,44.17
2019-02-04T09:15:16.225Z,41.80
2019-02-04T09:16:19.121Z,49.00
2019-02-04T09:17:22.825Z,49.67
2019-02-04T09:18:26.495Z,41.00
2019-02-04T09:19:30.910Z,37.80
2019-02-04T09:20:34.605Z,43.37
2019-02-04T09:21:38.251Z,51.60
2019-02-04T09:22:41.888Z,51.53
2019-02-04T09:23:45.722Z,52.57
2019-02-04T09:24:49.370Z,48.03
2019-02-04T09:25:53.012Z,42.43
2019-02-04T09:26:56.660Z,54.50
2019-02-04T09:28:00.304Z,49.93
2019-02-04T09:29:04.037Z,43.07
2019-02-04T09:30:10.666Z,39.37
2019-02-04T09:31:14.311Z,33.70
2019-02-04T09:32:17.958Z,40.40
2019-02-04T09:33:22.237Z,40.03
2019-02-04T09:34:25.980Z,37.53
2019-02-04T09:35:29.721Z,37.53
2019-02-04T09:36:33.393Z,42.77
2019-02-04T09:37:37.120Z,46.67
2019-02-04T09:38:40.855Z,46.87
2019-02-04T09:39:46.490Z,44.63
2019-02-04T09:40:50.859Z,41.70
2019-02-04T09:41:54.560Z,34.33
2019-02-04T09:42:58.192Z,46.30
2019-02-04T09:44:01.834Z,47.20
2019-02-04T09:45:08.519Z,39.90
2019-02-04T09:46:12.167Z,43.20
2019-02-04T09:47:15.806Z,35.50
2019-02-04T09:48:19.868Z,41.13
2019-02-04T09:49:23.881Z,37.13
2019-02-04T09:50:32.497Z,33.60
2019-02-04T09:51:36.014Z,42.80
2019-02-04T09:52:39.649Z,50.90
2019-02-04T09:53:43.286Z,59.13
2019-02-04T09:54:47.289Z,45.73
2019-02-04T09:55:50.955Z,49.17
2019-02-04T09:56:54.989Z,39.30
2019-02-04T09:57:58.630Z,46.70
2019-02-04T09:59:02.306Z,52.43
2019-02-04T10:00:08.852Z,39.03
2019-02-04T10:01:12.727Z,44.13
2019-02-04T10:02:16.364Z,41.30
2019-02-04T10:03:20.140Z,44.30
2019-02-04T10:04:23.862Z,41.90
2019-02-04T10:05:27.872Z,36.27
2019-02-04T10:06:31.551Z,38.60
2019-02-04T10:07:35.229Z,37.33
2019-02-04T10:08:38.875Z,38.87
2019-02-04T10:09:42.514Z,36.67
2019-02-04T10:10:46.160Z,35.07
2019-02-04T10:11:49.835Z,41.50
2019-02-04T10:12:53.673Z,41.30
2019-02-04T10:13:57.327Z,32.93
2019-02-04T10:15:00.992Z,38.27
2019-02-04T10:16:04.860Z,32.10
2019-02-04T10:17:08.515Z,30.47
2019-02-04T10:18:12.976Z,30.17
2019-02-04T10:19:16.682Z,35.30
2019-02-04T10:20:20.957Z,33.90
2019-02-04T10:21:24.558Z,36.03
2019-02-04T10:22:28.263Z,40.67
2019-02-04T10:23:32.004Z,43.73
2019-02-04T10:24:35.554Z,37.37
2019-02-04T10:25:41.627Z,29.97
2019-02-04T10:26:45.281Z,35.87
2019-02-04T10:27:49.031Z,42.50
2019-02-04T10:28:52.732Z,22.23
2019-02-04T10:29:58.034Z,22.60
2019-02-04T10:31:01.646Z,18.77
2019-02-04T10:32:05.720Z,21.27
2019-02-04T10:33:09.861Z,27.23
2019-02-04T10:34:13.468Z,25.57
2019-02-04T10:35:18.576Z,29.27
2019-02-04T10:36:23.140Z,27.47
2019-02-04T10:37:26.856Z,28.97
2019-02-04T10:38:30.514Z,39.03
2019-02-04T10:39:34.177Z,37.93
2019-02-04T10:40:37.840Z,30.87
2019-02-04T10:41:41.534Z,28.07
2019-02-04T10:42:45.286Z,31.53
2019-02-04T10:43:49.036Z,32.90
2019-02-04T10:44:52.679Z,25.10
2019-02-04T10:45:56.319Z,25.40
2019-02-04T10:46:59.973Z,25.73
2019-02-04T10:48:03.854Z,28.60
2019-02-04T10:49:07.593Z,22.67
2019-02-04T10:50:14.438Z,18.23
2019-02-04T10:51:18.530Z,25.23
2019-02-04T10:52:23.304Z,20.70
2019-02-04T10:53:27.841Z,25.53
2019-02-04T10:54:32.792Z,33.63
2019-02-04T10:55:36.467Z,24.43
2019-02-04T10:56:40.211Z,24.50
2019-02-04T10:57:43.973Z,35.43
2019-02-04T10:58:47.636Z,37.03
2019-02-04T10:59:51.348Z,34.40
2019-02-04T11:00:55.066Z,31.23
2019-02-04T11:01:58.794Z,33.93
2019-02-04T11:03:03.114Z,33.07
2019-02-04T11:04:06.798Z,30.87
2019-02-04T11:05:13.750Z,35.20
2019-02-04T11:06:17.825Z,39.73
2019-02-04T11:07:21.838Z,44.10
2019-02-04T11:08:25.638Z,43.13
2019-02-04T11:09:29.456Z,33.23
2019-02-04T11:10:34.865Z,37.73
2019-02-04T11:11:38.776Z,30.73
2019-02-04T11:12:42.660Z,32.50
2019-02-04T11:13:46.385Z,33.43
2019-02-04T11:14:50.122Z,30.53
2019-02-04T11:15:54.182Z,32.97
2019-02-04T11:16:59.070Z,33.77
2019-02-04T11:18:02.832Z,29.30
2019-02-04T11:19:07.563Z,28.27
2019-02-04T11:20:26.350Z,32.33
2019-02-04T11:21:30.219Z,23.33
2019-02-04T11:22:34.026Z,31.50
2019-02-04T11:23:37.806Z,31.73
2019-02-04T11:24:41.547Z,36.10
2019-02-04T11:25:45.755Z,37.07
2019-02-04T11:26:49.624Z,33.17
2019-02-04T11:27:53.264Z,32.97
2019-02-04T11:28:56.913Z,25.83
2019-02-04T11:30:00.641Z,27.93
2019-02-04T11:31:04.723Z,33.77
2019-02-04T11:32:08.400Z,22.60
2019-02-04T11:33:12.311Z,29.00
2019-02-04T11:34:15.958Z,32.63
2019-02-04T11:35:19.611Z,30.77
2019-02-04T11:36:23.235Z,29.77
2019-02-04T11:37:26.907Z,27.97
2019-02-04T11:38:30.700Z,29.63
2019-02-04T11:39:34.362Z,31.97
2019-02-04T11:40:40.272Z,28.47
2019-02-04T11:41:44.335Z,24.73
2019-02-04T11:42:48.252Z,30.43
2019-02-04T11:43:52.377Z,27.33
2019-02-04T11:44:56.006Z,23.73
2019-02-04T11:45:59.710Z,27.80
2019-02-04T11:47:03.394Z,30.00
2019-02-04T11:48:12.458Z,29.77
2019-02-04T11:49:16.247Z,29.80
2019-02-04T11:50:19.895Z,30.80
2019-02-04T11:51:23.539Z,26.00
2019-02-04T11:52:27.181Z,33.33
2019-02-04T11:53:33.042Z,36.83
2019-02-04T11:54:36.236Z,36.77
2019-02-04T11:55:39.952Z,37.67
2019-02-04T11:56:45.987Z,40.63
2019-02-04T11:57:50.108Z,26.03
2019-02-04T11:58:54.205Z,33.57
2019-02-04T11:59:57.845Z,30.70
2019-02-04T12:01:01.494Z,36.43
2019-02-04T12:02:09.385Z,39.70
2019-02-04T12:03:14.005Z,37.67
2019-02-04T12:04:18.068Z,34.77
2019-02-04T12:05:23.499Z,32.33
2019-02-04T12:06:27.147Z,31.47
2019-02-04T12:07:30.852Z,39.70
2019-02-04T12:08:34.494Z,32.37
2019-02-04T12:09:38.165Z,31.53
2019-02-04T12:10:45.223Z,32.60
2019-02-04T12:11:48.885Z,37.33
2019-02-04T12:12:52.603Z,33.80
2019-02-04T12:13:56.717Z,29.43
2019-02-04T12:15:00.606Z,27.13
2019-02-04T12:16:05.718Z,29.30
2019-02-04T12:17:09.386Z,26.03
2019-02-04T12:18:13.031Z,37.87
2019-02-04T12:19:16.669Z,36.93
2019-02-04T12:20:20.814Z,39.20
2019-02-04T12:21:24.449Z,39.17
2019-02-04T12:22:28.089Z,41.73
2019-02-04T12:23:31.736Z,31.03
2019-02-04T12:24:35.374Z,32.33
2019-02-04T12:25:39.048Z,39.20
2019-02-04T12:26:42.726Z,39.73
2019-02-04T12:27:46.458Z,38.67
2019-02-04T12:28:50.568Z,37.53
2019-02-04T12:29:54.282Z,33.87
2019-02-04T12:30:57.956Z,28.80
2019-02-04T12:32:01.593Z,26.10
2019-02-04T12:33:07.230Z,23.17
2019-02-04T12:34:10.865Z,26.43
2019-02-04T12:35:14.702Z,23.37
2019-02-04T12:36:18.372Z,32.53
2019-02-04T12:37:22.023Z,25.03
2019-02-04T12:38:25.942Z,29.50
2019-02-04T12:39:29.664Z,31.80
2019-02-04T12:40:33.310Z,27.43
2019-02-04T12:41:36.986Z,28.37
2019-02-04T12:42:40.729Z,28.00
2019-02-04T12:43:45.812Z,24.57
2019-02-04T12:44:49.454Z,29.53
2019-02-04T12:45:54.615Z,24.67
2019-02-04T12:46:58.356Z,27.27
2019-02-04T12:48:01.993Z,21.67
2019-02-04T12:49:05.657Z,23.20
2019-02-04T12:50:11.807Z,22.77
2019-02-04T12:51:15.449Z,20.80
2019-02-04T12:52:19.518Z,28.37
2019-02-04T12:53:23.361Z,31.43
2019-02-04T12:54:26.996Z,24.10
2019-02-04T12:55:32.149Z,27.47
2019-02-04T12:56:38.533Z,28.97
2019-02-04T12:57:42.199Z,20.10
2019-02-04T12:58:55.274Z,28.63
2019-02-04T12:59:51.219Z,22.83
2019-02-04T13:00:55.228Z,19.50
2019-02-04T13:01:58.869Z,21.33
2019-02-04T13:03:02.543Z,19.17
2019-02-04T13:04:06.384Z,16.47
2019-02-04T13:05:12.925Z,25.30
2019-02-04T13:06:16.576Z,23.50
2019-02-04T13:07:20.220Z,31.90
2019-02-04T13:08:24.312Z,27.43
2019-02-04T13:09:27.995Z,23.87
2019-02-04T13:10:31.726Z,22.10
2019-02-04T13:11:35.361Z,26.60
2019-02-04T13:12:39.405Z,26.67
2019-02-04T13:13:43.090Z,30.53
2019-02-04T13:14:46.727Z,25.40
2019-02-04T13:15:50.866Z,19.80
2019-02-04T13:16:54.499Z,23.27
2019-02-04T13:17:58.135Z,24.20
2019-02-04T13:19:02.775Z,17.73
2019-02-04T13:20:09.354Z,20.63
2019-02-04T13:21:12.990Z,20.87
2019-02-04T13:22:16.769Z,17.40
2019-02-04T13:23:20.513Z,23.73
2019-02-04T13:24:24.111Z,20.33
2019-02-04T13:25:29.714Z,21.27
2019-02-04T13:26:33.358Z,23.73
2019-02-04T13:27:37.096Z,24.90
2019-02-04T13:28:40.740Z,23.10
2019-02-04T13:29:46.461Z,19.07
2019-02-04T13:30:49.910Z,20.00
2019-02-04T13:31:54.015Z,20.67
2019-02-04T13:32:58.154Z,21.97
2019-02-04T13:34:01.939Z,19.27
2019-02-04T13:35:08.184Z,15.40
2019-02-04T13:36:11.854Z,17.80
2019-02-04T13:37:15.478Z,24.57
2019-02-04T13:38:19.228Z,16.37
2019-02-04T13:39:26.232Z,21.57
2019-02-04T13:40:31.211Z,19.53
2019-02-04T13:41:34.850Z,15.43
2019-02-04T13:42:39.967Z,18.30
2019-02-04T13:43:45.921Z,23.87
2019-02-04T13:44:49.298Z,24.17